createdAt,value
2019-03-18T00:00:36.927Z,4.15
2019-03-18T00:03:26.328Z,4.06
2019-03-18T00:06:15.776Z,3.99
2019-03-18T00:09:06.357Z,3.94
2019-03-18T00:11:55.893Z,3.83
2019-03-18T00:14:45.642Z,3.85
2019-03-18T00:17:35.357Z,3.81
2019-03-18T00:20:24.705Z,3.77
2019-03-18T00:23:14.158Z,3.66
2019-03-18T00:26:04.405Z,3.75
2019-03-18T00:28:54.488Z,3.86
2019-03-18T00:31:43.619Z,3.99
2019-03-18T00:34:33.269Z,3.94
2019-03-18T00:37:22.519Z,3.92
2019-03-18T00:40:11.966Z,3.82
2019-03-18T00:43:00.653Z,3.70
2019-03-18T00:45:50.131Z,3.72
2019-03-18T00:48:39.693Z,3.66
2019-03-18T00:51:29.006Z,3.70
2019-03-18T00:54:18.538Z,3.63
2019-03-18T00:57:08.111Z,3.74
2019-03-18T00:59:58.758Z,3.72
2019-03-18T01:02:50.041Z,3.71
2019-03-18T01:05:38.947Z,3.77
2019-03-18T01:08:28.697Z,3.94
2019-03-18T01:11:17.223Z,3.99
2019-03-18T01:14:06.609Z,4.11
2019-03-18T01:16:56.194Z,4.13
2019-03-18T01:19:45.720Z,4.15
2019-03-18T01:22:35.135Z,4.19
2019-03-18T01:25:24.338Z,4.25
2019-03-18T01:28:13.860Z,4.15
2019-03-18T01:31:03.696Z,4.20
2019-03-18T01:33:53.541Z,4.15
2019-03-18T01:36:42.121Z,4.05
2019-03-18T01:39:32.005Z,3.90
2019-03-18T01:42:21.451Z,3.83
2019-03-18T01:45:11.372Z,3.82
2019-03-18T01:48:00.730Z,3.74
2019-03-18T01:50:50.127Z,3.73
2019-03-18T01:53:38.792Z,3.72
2019-03-18T01:56:28.439Z,3.64
2019-03-18T01:59:18.339Z,3.64
2019-03-18T02:02:07.545Z,3.53
2019-03-18T02:04:57.204Z,3.54
2019-03-18T02:07:47.206Z,3.54
2019-03-18T02:10:36.266Z,3.55
2019-03-18T02:13:25.156Z,3.54
2019-03-18T02:16:14.323Z,3.59
2019-03-18T02:19:02.953Z,3.63
2019-03-18T02:21:52.915Z,3.62
2019-03-18T02:24:42.493Z,3.68
2019-03-18T02:27:31.845Z,3.65
2019-03-18T02:30:21.031Z,3.59
2019-03-18T02:33:10.081Z,3.59
2019-03-18T02:35:59.429Z,3.53
2019-03-18T02:38:48.391Z,3.50
2019-03-18T02:41:36.980Z,3.51
2019-03-18T02:44:25.876Z,3.54
2019-03-18T02:47:14.973Z,3.52
2019-03-18T02:50:04.778Z,3.48
2019-03-18T02:52:54.602Z,3.41
2019-03-18T02:55:44.224Z,3.44
2019-03-18T02:58:33.614Z,3.48
2019-03-18T03:01:22.456Z,3.42
2019-03-18T03:04:11.287Z,3.47
2019-03-18T03:07:00.944Z,3.42
2019-03-18T03:09:49.597Z,3.40
2019-03-18T03:12:38.845Z,3.32
2019-03-18T03:15:27.800Z,3.36
2019-03-18T03:18:16.965Z,3.42
2019-03-18T03:21:06.384Z,3.51
2019-03-18T03:23:56.018Z,3.55
2019-03-18T03:26:45.602Z,3.54
2019-03-18T03:29:35.095Z,3.58
2019-03-18T03:32:23.657Z,3.60
2019-03-18T03:35:12.414Z,3.62
2019-03-18T03:38:02.390Z,3.71
2019-03-18T03:40:51.427Z,3.77
2019-03-18T03:43:39.839Z,3.73
2019-03-18T03:46:42.484Z,3.77
2019-03-18T03:49:19.349Z,3.80
2019-03-18T03:52:08.224Z,3.80
2019-03-18T03:54:57.003Z,3.78
2019-03-18T03:57:45.856Z,3.76
2019-03-18T04:00:35.937Z,3.76
2019-03-18T04:03:37.650Z,3.75
2019-03-18T04:06:15.874Z,3.73
2019-03-18T04:09:06.546Z,3.75
2019-03-18T04:11:55.764Z,3.84
2019-03-18T04:14:45.115Z,3.77
2019-03-18T04:17:34.282Z,3.73
2019-03-18T04:20:23.478Z,3.72
2019-03-18T04:23:12.901Z,3.79
2019-03-18T04:26:01.543Z,3.77
2019-03-18T04:28:51.399Z,3.78
2019-03-18T04:31:40.873Z,3.78
2019-03-18T04:34:30.912Z,3.79
2019-03-18T04:37:21.832Z,3.82
2019-03-18T04:40:11.106Z,3.76
2019-03-18T04:43:00.793Z,3.81
2019-03-18T04:45:49.935Z,3.75
2019-03-18T04:48:39.035Z,3.75
2019-03-18T04:51:28.679Z,3.74
2019-03-18T04:54:17.884Z,3.78
2019-03-18T04:57:07.012Z,3.91
2019-03-18T04:59:55.765Z,3.83
2019-03-18T05:02:44.973Z,3.87
2019-03-18T05:05:34.639Z,3.82
2019-03-18T05:08:24.513Z,3.83
2019-03-18T05:11:13.705Z,3.79
2019-03-18T05:14:02.838Z,3.76
2019-03-18T05:16:52.078Z,3.83
2019-03-18T05:19:41.525Z,3.84
2019-03-18T05:22:30.740Z,4.01
2019-03-18T05:25:20.112Z,3.86
2019-03-18T05:28:08.821Z,3.91
2019-03-18T05:30:58.108Z,3.87
2019-03-18T05:33:48.664Z,3.83
2019-03-18T05:36:38.498Z,3.83
2019-03-18T05:39:27.849Z,3.86
2019-03-18T05:42:17.259Z,3.83
2019-03-18T05:45:06.187Z,3.83
2019-03-18T05:47:56.035Z,3.82
2019-03-18T05:50:45.709Z,3.80
2019-03-18T05:53:35.463Z,3.85
2019-03-18T05:56:23.813Z,3.86
2019-03-18T05:59:13.503Z,3.78
2019-03-18T06:02:02.854Z,3.87
2019-03-18T06:04:52.958Z,3.82
2019-03-18T06:07:42.507Z,3.83
2019-03-18T06:10:31.679Z,3.80
2019-03-18T06:13:21.428Z,3.93
2019-03-18T06:16:10.580Z,3.95
2019-03-18T06:19:01.284Z,3.99
2019-03-18T06:21:50.175Z,4.03
2019-03-18T06:24:39.032Z,4.12
2019-03-18T06:27:28.801Z,4.08
2019-03-18T06:30:18.358Z,4.01
2019-03-18T06:33:06.676Z,4.14
2019-03-18T06:35:56.199Z,4.18
2019-03-18T06:38:44.743Z,4.25
2019-03-18T06:41:33.899Z,4.26
2019-03-18T06:44:23.111Z,4.40
2019-03-18T06:47:12.677Z,4.53
2019-03-18T06:50:02.511Z,4.45
2019-03-18T06:52:51.422Z,4.59
2019-03-18T06:55:40.535Z,4.50
2019-03-18T06:58:29.982Z,4.51
2019-03-18T07:01:19.507Z,4.56
2019-03-18T07:04:08.621Z,4.68
2019-03-18T07:06:56.899Z,4.50
2019-03-18T07:09:46.604Z,4.45
2019-03-18T07:12:35.941Z,4.57
2019-03-18T07:15:25.510Z,4.79
2019-03-18T07:18:18.689Z,4.88
2019-03-18T07:21:05.083Z,4.98
2019-03-18T07:23:54.272Z,5.20
2019-03-18T07:26:43.572Z,5.30
2019-03-18T07:29:32.744Z,5.45
2019-03-18T07:32:22.063Z,5.41
2019-03-18T07:35:11.308Z,5.48
2019-03-18T07:38:00.681Z,5.50
2019-03-18T07:40:50.067Z,6.02
2019-03-18T07:43:39.172Z,6.37
2019-03-18T07:46:27.754Z,6.20
2019-03-18T07:49:16.833Z,6.20
2019-03-18T07:52:05.695Z,6.09
2019-03-18T07:54:54.395Z,6.18
2019-03-18T07:57:43.467Z,6.12
2019-03-18T08:00:32.824Z,6.04
2019-03-18T08:03:22.204Z,6.21
2019-03-18T08:06:12.596Z,6.29
2019-03-18T08:09:01.406Z,6.22
2019-03-18T08:11:52.107Z,6.17
2019-03-18T08:14:41.257Z,5.95
2019-03-18T08:17:30.351Z,6.08
2019-03-18T08:20:19.211Z,6.24
2019-03-18T08:23:09.095Z,6.20
2019-03-18T08:25:58.282Z,6.37
2019-03-18T08:28:47.838Z,6.25
2019-03-18T08:31:37.573Z,6.30
2019-03-18T08:34:26.433Z,6.46
2019-03-18T08:37:16.162Z,6.56
2019-03-18T08:40:06.179Z,6.59
2019-03-18T08:42:55.331Z,6.76
2019-03-18T08:45:44.765Z,6.58
2019-03-18T08:48:34.294Z,6.34
2019-03-18T08:51:23.611Z,6.32
2019-03-18T08:54:12.859Z,6.48
2019-03-18T08:57:02.269Z,6.47
2019-03-18T08:59:51.905Z,6.49
2019-03-18T09:02:41.489Z,6.79
2019-03-18T09:05:31.009Z,6.90
2019-03-18T09:08:20.381Z,6.98
2019-03-18T09:11:09.554Z,6.92
2019-03-18T09:13:58.176Z,6.88
2019-03-18T09:16:47.245Z,6.82
2019-03-18T09:19:36.924Z,6.73
2019-03-18T09:22:26.179Z,6.59
2019-03-18T09:25:15.011Z,6.57
2019-03-18T09:28:04.107Z,6.47
2019-03-18T09:30:52.476Z,6.47
2019-03-18T09:33:41.377Z,6.54
2019-03-18T09:36:31.064Z,6.44
2019-03-18T09:39:21.074Z,6.37
2019-03-18T09:42:09.772Z,6.40
2019-03-18T09:44:59.209Z,6.27
2019-03-18T09:47:48.595Z,6.35
2019-03-18T09:50:38.042Z,6.42
2019-03-18T09:53:27.243Z,6.38
2019-03-18T09:56:16.780Z,6.51
2019-03-18T09:59:06.001Z,6.62
2019-03-18T10:01:55.210Z,6.65
2019-03-18T10:04:45.063Z,7.01
2019-03-18T10:07:34.411Z,6.94
2019-03-18T10:10:24.669Z,7.13
2019-03-18T10:13:13.972Z,7.33
2019-03-18T10:16:02.907Z,7.44
2019-03-18T10:18:52.049Z,7.37
2019-03-18T10:21:41.412Z,7.28
2019-03-18T10:24:30.688Z,7.28
2019-03-18T10:27:20.351Z,7.32
2019-03-18T10:30:09.495Z,7.44
2019-03-18T10:32:59.101Z,7.60
2019-03-18T10:35:48.334Z,7.65
2019-03-18T10:38:37.285Z,7.72
2019-03-18T10:41:26.151Z,7.73
2019-03-18T10:44:14.862Z,7.86
2019-03-18T10:47:04.490Z,7.79
2019-03-18T10:49:53.103Z,7.72
2019-03-18T10:52:42.176Z,7.94
2019-03-18T10:55:31.288Z,8.25
2019-03-18T10:58:20.965Z,8.46
2019-03-18T11:01:10.988Z,8.45
2019-03-18T11:04:00.820Z,8.65
2019-03-18T11:06:50.944Z,8.69
2019-03-18T11:09:40.608Z,8.78
2019-03-18T11:12:29.207Z,8.98
2019-03-18T11:15:18.237Z,9.03
2019-03-18T11:18:07.381Z,8.93
2019-03-18T11:20:57.051Z,8.74
2019-03-18T11:23:46.519Z,8.99
2019-03-18T11:26:35.439Z,8.83
2019-03-18T11:29:25.015Z,8.69
2019-03-18T11:32:14.076Z,9.21
2019-03-18T11:35:03.172Z,9.65
2019-03-18T11:37:52.675Z,9.81
2019-03-18T11:40:41.711Z,10.13
2019-03-18T11:43:30.897Z,10.20
2019-03-18T11:46:19.262Z,10.28
2019-03-18T11:49:08.834Z,9.96
2019-03-18T11:51:57.379Z,9.85
2019-03-18T11:54:47.301Z,9.82
2019-03-18T11:57:37.137Z,9.91
2019-03-18T12:00:25.930Z,9.98
2019-03-18T12:03:14.586Z,10.32
2019-03-18T12:06:04.580Z,10.65
2019-03-18T12:08:54.472Z,10.51
2019-03-18T12:11:43.730Z,10.50
2019-03-18T12:14:32.741Z,10.51
2019-03-18T12:17:22.080Z,10.75
2019-03-18T12:20:23.645Z,10.62
2019-03-18T12:23:02.233Z,10.53
2019-03-18T12:25:51.474Z,10.16
2019-03-18T12:28:41.210Z,10.23
2019-03-18T12:31:30.689Z,10.91
2019-03-18T12:34:20.011Z,10.83
2019-03-18T12:37:09.151Z,10.30
2019-03-18T12:39:58.548Z,9.46
2019-03-18T12:42:47.989Z,9.10
2019-03-18T12:45:37.375Z,8.82
2019-03-18T12:48:27.053Z,8.33
2019-03-18T12:51:16.570Z,8.53
2019-03-18T12:54:06.195Z,8.92
2019-03-18T12:56:55.252Z,9.13
2019-03-18T12:59:44.369Z,9.59
2019-03-18T13:02:33.892Z,9.37
2019-03-18T13:05:23.938Z,9.72
2019-03-18T13:08:13.387Z,9.40
2019-03-18T13:11:03.424Z,8.76
2019-03-18T13:13:52.765Z,8.70
2019-03-18T13:16:41.962Z,8.80
2019-03-18T13:19:31.635Z,8.66
2019-03-18T13:22:21.005Z,8.65
2019-03-18T13:25:10.713Z,9.42
2019-03-18T13:27:59.388Z,9.91
2019-03-18T13:30:49.204Z,9.85
2019-03-18T13:33:41.396Z,9.93
2019-03-18T13:36:28.590Z,9.97
2019-03-18T13:39:18.087Z,9.84
2019-03-18T13:42:08.150Z,9.74
2019-03-18T13:44:57.836Z,9.99
2019-03-18T13:47:46.984Z,9.75
2019-03-18T13:50:36.353Z,9.17
2019-03-18T13:53:25.323Z,8.88
2019-03-18T13:56:14.968Z,8.71
2019-03-18T13:59:04.502Z,8.88
2019-03-18T14:01:54.660Z,8.73
2019-03-18T14:04:43.812Z,8.81
2019-03-18T14:07:32.740Z,8.74
2019-03-18T14:10:22.523Z,8.67
2019-03-18T14:13:11.989Z,8.52
2019-03-18T14:16:01.451Z,8.05
2019-03-18T14:18:50.392Z,7.70
2019-03-18T14:21:39.846Z,7.31
2019-03-18T14:24:29.316Z,7.38
2019-03-18T14:27:18.859Z,7.35
2019-03-18T14:30:10.499Z,7.19
2019-03-18T14:32:59.848Z,7.01
2019-03-18T14:35:49.545Z,7.17
2019-03-18T14:38:38.965Z,7.24
2019-03-18T14:41:27.541Z,7.45
2019-03-18T14:44:16.609Z,7.46
2019-03-18T14:47:06.177Z,7.26
2019-03-18T14:49:55.309Z,7.38
2019-03-18T14:52:45.095Z,7.64
2019-03-18T14:55:34.404Z,8.01
2019-03-18T14:58:24.035Z,8.14
2019-03-18T15:01:13.877Z,8.27
2019-03-18T15:04:02.484Z,8.29
2019-03-18T15:06:51.903Z,8.49
2019-03-18T15:09:41.055Z,8.58
2019-03-18T15:12:31.668Z,8.73
2019-03-18T15:15:20.790Z,8.80
2019-03-18T15:18:11.472Z,8.97
2019-03-18T15:21:00.170Z,8.86
2019-03-18T15:23:50.035Z,8.85
2019-03-18T15:26:39.216Z,8.81
2019-03-18T15:29:28.401Z,8.80
2019-03-18T15:32:17.639Z,8.97
2019-03-18T15:35:06.962Z,8.83
2019-03-18T15:37:57.642Z,8.79
2019-03-18T15:40:46.106Z,8.70
2019-03-18T15:43:35.042Z,8.62
2019-03-18T15:46:24.483Z,8.49
2019-03-18T15:49:13.349Z,8.48
2019-03-18T15:52:10.846Z,8.34
2019-03-18T15:54:54.173Z,8.27
2019-03-18T15:57:43.559Z,8.28
2019-03-18T16:00:34.314Z,8.19
2019-03-18T16:03:23.654Z,8.13
2019-03-18T16:06:12.926Z,7.94
2019-03-18T16:09:01.697Z,7.82
2019-03-18T16:11:50.791Z,7.62
2019-03-18T16:14:39.886Z,7.51
2019-03-18T16:17:29.790Z,7.50
2019-03-18T16:20:19.439Z,7.51
2019-03-18T16:23:08.343Z,7.52
2019-03-18T16:25:58.053Z,7.46
2019-03-18T16:28:47.569Z,7.31
2019-03-18T16:31:37.005Z,7.15
2019-03-18T16:34:26.217Z,7.13
2019-03-18T16:37:16.016Z,7.20
2019-03-18T16:40:06.249Z,7.21
2019-03-18T16:42:56.440Z,7.18
2019-03-18T16:45:45.887Z,7.07
2019-03-18T16:48:34.794Z,6.97
2019-03-18T16:51:23.457Z,6.92
2019-03-18T16:54:12.205Z,6.77
2019-03-18T16:57:01.797Z,6.68
2019-03-18T16:59:50.354Z,6.43
2019-03-18T17:02:39.402Z,6.30
2019-03-18T17:05:27.987Z,6.10
2019-03-18T17:08:16.573Z,6.01
2019-03-18T17:11:05.853Z,5.88
2019-03-18T17:13:54.466Z,5.77
2019-03-18T17:16:44.107Z,5.68
2019-03-18T17:19:33.919Z,5.49
2019-03-18T17:22:23.295Z,5.40
2019-03-18T17:25:14.651Z,5.42
2019-03-18T17:28:04.018Z,5.31
2019-03-18T17:30:53.111Z,5.26
2019-03-18T17:33:42.576Z,5.11
2019-03-18T17:36:31.774Z,4.93
2019-03-18T17:39:21.319Z,4.65
2019-03-18T17:42:10.802Z,4.51
2019-03-18T17:45:00.629Z,4.37
2019-03-18T17:47:51.514Z,4.20
2019-03-18T17:50:40.948Z,4.01
2019-03-18T17:53:30.465Z,3.95
2019-03-18T17:56:29.774Z,3.85
2019-03-18T17:59:10.325Z,3.84
2019-03-18T18:02:00.856Z,3.74
2019-03-18T18:05:02.142Z,3.57
2019-03-18T18:07:41.109Z,3.52
2019-03-18T18:10:29.786Z,3.45
2019-03-18T18:13:18.821Z,3.29
2019-03-18T18:16:08.207Z,3.26
2019-03-18T18:18:57.383Z,3.24
2019-03-18T18:21:46.029Z,3.18
2019-03-18T18:24:35.557Z,3.03
2019-03-18T18:27:24.105Z,3.05
2019-03-18T18:30:13.668Z,3.05
2019-03-18T18:33:03.326Z,3.26
2019-03-18T18:35:52.992Z,3.55
2019-03-18T18:38:42.381Z,3.67
2019-03-18T18:41:31.581Z,3.83
2019-03-18T18:44:20.510Z,3.89
2019-03-18T18:47:08.926Z,4.04
2019-03-18T18:49:58.245Z,4.13
2019-03-18T18:52:47.010Z,4.43
2019-03-18T18:55:36.832Z,4.54
2019-03-18T18:58:25.249Z,4.55
2019-03-18T19:01:14.604Z,4.55
2019-03-18T19:04:03.274Z,4.59
2019-03-18T19:06:53.353Z,4.62
2019-03-18T19:09:42.682Z,4.52
2019-03-18T19:12:31.450Z,4.58
2019-03-18T19:15:20.476Z,4.55
2019-03-18T19:18:09.820Z,4.53
2019-03-18T19:20:59.235Z,4.48
2019-03-18T19:23:47.836Z,4.41
2019-03-18T19:26:37.066Z,4.40
2019-03-18T19:29:26.532Z,4.46
2019-03-18T19:32:16.085Z,4.44
2019-03-18T19:35:05.287Z,4.39
2019-03-18T19:37:54.931Z,4.41
2019-03-18T19:40:44.464Z,4.43
2019-03-18T19:43:34.089Z,4.37
2019-03-18T19:46:23.840Z,4.24
2019-03-18T19:49:13.423Z,4.16
2019-03-18T19:52:03.716Z,4.14
2019-03-18T19:54:53.196Z,4.12
2019-03-18T19:57:42.892Z,4.12
2019-03-18T20:00:32.598Z,4.16
2019-03-18T20:03:22.137Z,4.21
2019-03-18T20:06:11.747Z,4.28
2019-03-18T20:09:02.443Z,4.27
2019-03-18T20:11:51.496Z,4.26
2019-03-18T20:14:41.633Z,4.26
2019-03-18T20:17:30.464Z,4.32
2019-03-18T20:20:19.173Z,4.30
2019-03-18T20:23:08.916Z,4.30
2019-03-18T20:25:58.948Z,4.21
2019-03-18T20:28:48.462Z,4.23
2019-03-18T20:31:38.295Z,4.17
2019-03-18T20:34:27.988Z,3.99
2019-03-18T20:37:17.393Z,3.86
2019-03-18T20:40:07.036Z,3.76
2019-03-18T20:42:56.683Z,3.60
2019-03-18T20:45:46.623Z,3.68
2019-03-18T20:48:35.576Z,3.59
2019-03-18T20:51:25.231Z,3.45
2019-03-18T20:54:14.365Z,3.48
2019-03-18T20:57:03.179Z,3.29
2019-03-18T20:59:52.327Z,3.27
2019-03-18T21:02:41.900Z,3.23
2019-03-18T21:05:32.805Z,3.28
2019-03-18T21:08:21.958Z,3.22
2019-03-18T21:11:11.966Z,3.25
2019-03-18T21:14:01.060Z,3.28
2019-03-18T21:16:49.993Z,3.36
2019-03-18T21:19:39.410Z,3.38
2019-03-18T21:22:28.759Z,3.36
2019-03-18T21:25:19.226Z,3.44
2019-03-18T21:28:08.910Z,3.37
2019-03-18T21:30:58.278Z,3.41
2019-03-18T21:33:48.039Z,3.33
2019-03-18T21:36:38.525Z,3.30
2019-03-18T21:39:27.193Z,3.23
2019-03-18T21:42:16.638Z,3.25
2019-03-18T21:45:06.367Z,3.37
2019-03-18T21:47:55.703Z,3.33
2019-03-18T21:50:45.122Z,3.43
2019-03-18T21:53:34.322Z,3.46
2019-03-18T21:56:22.653Z,3.51
2019-03-18T21:59:11.305Z,3.61
2019-03-18T22:02:00.028Z,3.61
2019-03-18T22:04:48.804Z,3.57
2019-03-18T22:07:37.899Z,3.64
2019-03-18T22:10:27.250Z,3.71
2019-03-18T22:13:16.612Z,3.75
2019-03-18T22:16:05.410Z,3.73
2019-03-18T22:18:54.557Z,3.78
2019-03-18T22:21:42.997Z,3.80
2019-03-18T22:24:31.549Z,3.86
2019-03-18T22:27:20.981Z,3.97
2019-03-18T22:30:10.890Z,3.91
2019-03-18T22:33:00.370Z,3.95
2019-03-18T22:35:49.551Z,3.89
2019-03-18T22:38:38.803Z,3.95
2019-03-18T22:41:30.217Z,3.92
2019-03-18T22:44:19.088Z,3.93
2019-03-18T22:47:07.884Z,3.84
2019-03-18T22:49:57.715Z,3.75
2019-03-18T22:52:47.248Z,3.61
2019-03-18T22:55:36.489Z,3.49
2019-03-18T22:58:25.094Z,3.33
2019-03-18T23:01:17.324Z,3.28
2019-03-18T23:04:06.027Z,3.26
2019-03-18T23:06:54.656Z,3.43
2019-03-18T23:09:44.465Z,3.33
2019-03-18T23:12:33.681Z,3.19
2019-03-18T23:15:24.420Z,3.05
2019-03-18T23:18:14.093Z,2.88
2019-03-18T23:21:02.887Z,2.86
2019-03-18T23:23:51.590Z,2.68
2019-03-18T23:26:40.772Z,2.58
2019-03-18T23:29:30.257Z,2.45
2019-03-18T23:32:19.433Z,2.35
2019-03-18T23:35:08.594Z,2.49
2019-03-18T23:37:58.450Z,2.35
2019-03-18T23:40:48.004Z,2.44
2019-03-18T23:43:37.455Z,2.41
2019-03-18T23:46:26.040Z,2.30
2019-03-18T23:49:15.439Z,2.38
2019-03-18T23:52:04.989Z,2.31
2019-03-18T23:54:54.141Z,2.35
2019-03-18T23:57:43.579Z,2.41
